Terminal Aerodrome Forecast
Issued by NWS Quad Cities IA IL

Home | Current Version | Previous Version | Text Only | Print | Product List | Glossary On
Versions: 1 2 3 4 5 6 7 8 9 10 11 12 13 14 15 16 17 18 19 20 21 22 23 24 25 26
000
FTUS43 KDVN 201147
TAFMLI
TAF
KMLI 201147Z 2012/2112 04005KT 1/4SM -DZ FG OVC002
     FM201500 12005KT 3/4SM BR OVC005
     FM201800 12005KT 4SM BR OVC012
     FM210300 13006KT 1/2SM -DZ FG OVC007
     FM210900 15008KT 2SM BR BKN012=

USA.gov is the U.S. government's official web portal to all federal, state and local government web resources and services.